createdAt,value
2022-11-13T00:01:16.867Z,10.83
2022-11-13T00:05:20.362Z,11.10
2022-11-13T00:09:25.080Z,9.20
2022-11-13T00:13:30.536Z,9.97
2022-11-13T00:17:34.106Z,10.50
2022-11-13T00:21:37.342Z,9.40
2022-11-13T00:25:42.142Z,10.67
2022-11-13T00:29:45.895Z,9.50
2022-11-13T00:38:12.640Z,9.07
2022-11-13T00:42:17.290Z,10.13
2022-11-13T00:46:21.089Z,8.17
2022-11-13T00:50:24.380Z,8.80
2022-11-13T00:54:27.725Z,8.37
2022-11-13T00:58:32.546Z,8.07
2022-11-13T01:02:35.838Z,7.70
2022-11-13T01:06:39.097Z,7.23
2022-11-13T01:10:45.583Z,8.40
2022-11-13T01:14:52.229Z,7.10
2022-11-13T01:18:57.332Z,6.93
2022-11-13T01:23:00.613Z,6.30
2022-11-13T01:27:03.911Z,5.73
2022-11-13T01:31:10.009Z,7.77
2022-11-13T01:35:13.244Z,7.73
2022-11-13T01:39:16.732Z,7.40
2022-11-13T01:43:27.176Z,8.27
2022-11-13T01:47:32.998Z,6.93
2022-11-13T01:51:40.466Z,7.97
2022-11-13T01:55:44.014Z,8.00
2022-11-13T01:59:52.836Z,8.77
2022-11-13T02:03:57.521Z,8.77
2022-11-13T02:08:01.702Z,7.93
2022-11-13T02:12:06.986Z,8.13
2022-11-13T02:16:13.478Z,8.80
2022-11-13T02:20:22.236Z,8.77
2022-11-13T02:24:32.379Z,8.20
2022-11-13T02:28:36.537Z,8.47
2022-11-13T02:32:44.898Z,9.83
2022-11-13T02:36:48.173Z,8.33
2022-11-13T02:40:52.961Z,7.27
2022-11-13T02:44:56.228Z,7.93
2022-11-13T02:48:59.503Z,8.00
2022-11-13T02:53:03.003Z,7.90
2022-11-13T02:57:07.632Z,7.17
2022-11-13T03:01:10.904Z,7.37
2022-11-13T03:05:14.448Z,7.93
2022-11-13T03:09:17.950Z,7.47
2022-11-13T03:13:22.600Z,8.77
2022-11-13T03:17:25.882Z,7.43
2022-11-13T03:21:29.205Z,9.57
2022-11-13T03:25:47.565Z,8.47
2022-11-13T03:29:52.236Z,9.03
2022-11-13T03:33:55.587Z,8.00
2022-11-13T03:37:58.829Z,8.77
2022-11-13T03:42:02.078Z,9.13
2022-11-13T03:46:06.934Z,8.30
2022-11-13T03:50:10.886Z,9.97
2022-11-13T03:54:14.207Z,10.00
2022-11-13T03:58:17.769Z,10.30
2022-11-13T04:02:22.499Z,9.27
2022-11-13T04:06:25.800Z,8.97
2022-11-13T04:10:29.365Z,8.33
2022-11-13T04:14:32.697Z,8.77
2022-11-13T04:18:37.340Z,9.00
2022-11-13T04:22:50.817Z,9.53
2022-11-13T04:26:54.104Z,10.40
2022-11-13T04:30:57.653Z,9.57
2022-11-13T04:35:02.308Z,10.30
2022-11-13T04:39:05.809Z,9.70
2022-11-13T04:43:09.053Z,10.00
2022-11-13T04:47:12.502Z,10.60
2022-11-13T04:51:17.185Z,12.07
2022-11-13T04:55:20.556Z,11.70
2022-11-13T04:59:24.640Z,11.10
2022-11-13T05:03:27.875Z,12.73
2022-11-13T05:07:32.605Z,11.90
2022-11-13T05:11:35.861Z,12.67
2022-11-13T05:15:39.152Z,11.40
2022-11-13T05:19:42.453Z,12.47
2022-11-13T05:23:47.241Z,14.00
2022-11-13T05:27:50.476Z,13.33
2022-11-13T05:31:53.846Z,14.47
2022-11-13T05:35:57.154Z,15.10
2022-11-13T05:40:01.883Z,19.13
2022-11-13T05:44:05.416Z,23.90
2022-11-13T05:48:08.803Z,25.93
2022-11-13T05:52:12.100Z,24.00
2022-11-13T05:56:18.885Z,21.77
2022-11-13T06:00:22.195Z,20.93
2022-11-13T06:04:25.464Z,17.20
2022-11-13T06:08:29.559Z,17.90
2022-11-13T06:12:34.555Z,17.97
2022-11-13T06:16:39.887Z,16.60
2022-11-13T06:20:43.171Z,18.63
2022-11-13T06:24:46.685Z,18.50
2022-11-13T06:28:53.844Z,17.37
2022-11-13T06:32:58.689Z,20.13
2022-11-13T06:37:02.370Z,19.40
2022-11-13T06:41:07.057Z,20.93
2022-11-13T06:45:12.816Z,19.47
2022-11-13T06:49:16.385Z,21.10
2022-11-13T06:53:20.060Z,20.77
2022-11-13T06:57:23.310Z,21.33
2022-11-13T07:01:28.446Z,19.70
2022-11-13T07:05:39.685Z,18.67
2022-11-13T07:09:43.004Z,21.23
2022-11-13T07:13:46.705Z,21.93
2022-11-13T07:17:51.337Z,20.87
2022-11-13T07:21:54.597Z,20.00
2022-11-13T07:25:57.911Z,22.40
2022-11-13T07:30:03.940Z,27.00
2022-11-13T07:34:09.016Z,26.97
2022-11-13T07:38:12.358Z,26.20
2022-11-13T07:42:16.191Z,24.20
2022-11-13T07:46:19.531Z,24.73
2022-11-13T07:50:24.181Z,24.53
2022-11-13T07:54:27.491Z,25.70
2022-11-13T07:58:32.109Z,24.90
2022-11-13T08:02:35.499Z,25.03
2022-11-13T08:06:40.631Z,22.57
2022-11-13T08:10:44.096Z,24.43
2022-11-13T08:14:47.353Z,24.73
2022-11-13T08:18:51.010Z,23.03
2022-11-13T08:22:58.275Z,22.30
2022-11-13T08:27:01.580Z,25.40
2022-11-13T08:31:33.812Z,24.53
2022-11-13T08:35:37.168Z,25.03
2022-11-13T08:39:41.966Z,25.27
2022-11-13T08:43:45.592Z,23.93
2022-11-13T08:47:48.865Z,25.80
2022-11-13T08:51:52.178Z,24.23
2022-11-13T08:55:56.822Z,24.33
2022-11-13T09:00:00.135Z,23.13
2022-11-13T09:04:03.811Z,23.90
2022-11-13T09:08:07.810Z,26.27
2022-11-13T09:12:12.551Z,24.50
2022-11-13T09:16:16.156Z,26.93
2022-11-13T09:20:22.663Z,24.43
2022-11-13T09:24:26.323Z,22.70
2022-11-13T09:28:31.302Z,23.07
2022-11-13T09:32:35.059Z,22.80
2022-11-13T09:36:38.638Z,20.03
2022-11-13T09:40:46.393Z,18.27
2022-11-13T09:44:56.029Z,18.50
2022-11-13T09:49:05.356Z,16.97
2022-11-13T09:53:11.334Z,16.43
2022-11-13T09:57:26.441Z,15.07
2022-11-13T10:01:39.753Z,13.57
2022-11-13T10:05:51.315Z,13.63
2022-11-13T10:10:06.842Z,14.30
2022-11-13T10:14:16.441Z,14.23
2022-11-13T10:18:25.665Z,15.23
2022-11-13T10:22:38.762Z,15.47
2022-11-13T10:26:42.370Z,13.57
2022-11-13T10:30:47.103Z,14.00
2022-11-13T10:40:11.178Z,14.73
2022-11-13T10:44:41.508Z,16.53
2022-11-13T10:48:45.075Z,14.63
2022-11-13T10:52:54.606Z,16.20
2022-11-13T10:57:36.211Z,14.17
2022-11-13T11:01:40.643Z,12.60
2022-11-13T11:05:54.921Z,12.07
2022-11-13T11:09:59.798Z,11.73
2022-11-13T11:14:12.289Z,13.87
2022-11-13T11:18:25.728Z,14.50
2022-11-13T11:22:34.353Z,13.57
2022-11-13T11:26:43.505Z,11.80
2022-11-13T11:30:52.988Z,11.60
2022-11-13T11:35:02.601Z,11.87
2022-11-13T11:39:26.720Z,12.43
2022-11-13T11:43:44.140Z,12.70
2022-11-13T11:47:47.883Z,15.17
2022-11-13T11:52:00.829Z,14.30
2022-11-13T11:56:24.776Z,14.97
2022-11-13T12:00:32.409Z,16.50
2022-11-13T12:04:48.011Z,12.83
2022-11-13T12:08:57.125Z,16.10
2022-11-13T12:13:14.207Z,12.60
2022-11-13T12:17:45.249Z,12.70
2022-11-13T12:21:57.694Z,14.13
2022-11-13T12:26:07.146Z,16.03
2022-11-13T12:30:14.801Z,16.53
2022-11-13T12:34:26.533Z,18.17
2022-11-13T12:38:37.626Z,17.67
2022-11-13T12:42:47.498Z,17.47
2022-11-13T12:46:51.715Z,18.27
2022-11-13T12:51:01.402Z,15.50
2022-11-13T12:55:10.271Z,17.20
2022-11-13T12:59:33.157Z,15.80
2022-11-13T13:03:51.122Z,16.93
2022-11-13T13:08:27.061Z,17.03
2022-11-13T13:12:43.307Z,15.07
2022-11-13T13:16:46.654Z,16.17
2022-11-13T13:21:03.188Z,16.67
2022-11-13T13:25:24.224Z,17.77
2022-11-13T13:29:29.007Z,17.83
2022-11-13T13:33:43.919Z,17.00
2022-11-13T13:37:58.148Z,16.97
2022-11-13T13:42:21.507Z,15.87
2022-11-13T13:46:28.314Z,18.17
2022-11-13T13:50:35.969Z,13.50
2022-11-13T13:54:43.571Z,16.13
2022-11-13T13:58:49.804Z,14.63
2022-11-13T14:02:54.617Z,13.53
2022-11-13T14:07:00.341Z,12.10
2022-11-13T14:11:05.943Z,12.20
2022-11-13T14:15:24.233Z,10.80
2022-11-13T14:19:28.358Z,11.40
2022-11-13T14:23:37.552Z,11.93
2022-11-13T14:27:41.091Z,12.10
2022-11-13T14:31:46.028Z,12.90
2022-11-13T14:35:54.314Z,12.10
2022-11-13T14:40:02.098Z,11.57
2022-11-13T14:44:06.813Z,11.17
2022-11-13T14:48:22.465Z,10.97
2022-11-13T14:52:27.389Z,11.37
2022-11-13T14:56:37.301Z,10.27
2022-11-13T15:00:41.234Z,10.43
2022-11-13T15:04:47.049Z,10.47
2022-11-13T15:08:56.392Z,10.90
2022-11-13T15:13:02.027Z,11.97
2022-11-13T15:17:05.952Z,12.70
2022-11-13T15:21:11.406Z,11.23
2022-11-13T15:25:18.544Z,10.80
2022-11-13T15:29:22.748Z,11.57
2022-11-13T15:33:27.581Z,12.00
2022-11-13T15:37:38.094Z,12.33
2022-11-13T15:41:42.397Z,11.40
2022-11-13T15:45:48.619Z,13.27
2022-11-13T15:50:12.371Z,12.57
2022-11-13T15:54:22.984Z,12.67
2022-11-13T15:58:33.513Z,13.47
2022-11-13T16:02:40.098Z,13.80
2022-11-13T16:06:47.957Z,14.57
2022-11-13T16:10:55.028Z,13.43
2022-11-13T16:14:59.341Z,15.80
2022-11-13T16:19:04.257Z,12.90
2022-11-13T16:23:16.100Z,16.07
2022-11-13T16:27:28.042Z,15.40
2022-11-13T16:31:32.100Z,14.00
2022-11-13T16:35:37.815Z,13.70
2022-11-13T16:39:41.880Z,12.17
2022-11-13T16:43:48.867Z,14.00
2022-11-13T16:47:53.803Z,14.90
2022-11-13T16:51:59.789Z,15.10
2022-11-13T16:56:07.968Z,16.07
2022-11-13T17:00:19.842Z,15.20
2022-11-13T17:04:24.652Z,16.70
2022-11-13T17:08:29.254Z,16.67
2022-11-13T17:12:34.151Z,16.90
2022-11-13T17:16:40.961Z,16.20
2022-11-13T17:20:46.466Z,16.33
2022-11-13T17:24:53.105Z,17.13
2022-11-13T17:28:58.523Z,16.00
2022-11-13T17:33:05.399Z,17.43
2022-11-13T17:37:25.376Z,15.20
2022-11-13T17:41:32.743Z,14.53
2022-11-13T17:45:45.639Z,17.00
2022-11-13T17:49:52.534Z,19.43
2022-11-13T17:54:01.788Z,18.00
2022-11-13T17:58:08.343Z,17.50
2022-11-13T18:02:17.705Z,15.73
2022-11-13T18:11:21.966Z,19.10
2022-11-13T18:15:40.133Z,18.03
2022-11-13T18:19:44.619Z,21.70
2022-11-13T18:23:58.533Z,21.30
2022-11-13T18:28:05.525Z,20.77
2022-11-13T18:32:10.728Z,23.20
2022-11-13T18:36:14.772Z,23.17
2022-11-13T18:40:21.702Z,21.27
2022-11-13T18:44:27.180Z,22.20
2022-11-13T18:48:34.029Z,20.50
2022-11-13T18:52:39.037Z,23.23
2022-11-13T18:56:48.520Z,21.50
2022-11-13T19:00:52.618Z,21.87
2022-11-13T19:04:57.797Z,24.13
2022-11-13T19:09:04.951Z,25.00
2022-11-13T19:13:12.323Z,23.30
2022-11-13T19:17:17.808Z,23.63
2022-11-13T19:21:24.464Z,20.73
2022-11-13T19:25:32.023Z,22.00
2022-11-13T19:29:40.581Z,20.20
2022-11-13T19:33:50.367Z,20.40
2022-11-13T19:38:00.472Z,20.20
2022-11-13T19:42:06.486Z,20.33
2022-11-13T19:46:15.490Z,21.10
2022-11-13T19:50:20.267Z,19.43
2022-11-13T19:54:27.206Z,20.23
2022-11-13T19:58:35.131Z,21.63
2022-11-13T20:02:42.803Z,20.80
2022-11-13T20:06:48.365Z,22.13
2022-11-13T20:10:56.154Z,20.33
2022-11-13T20:15:02.703Z,20.30
2022-11-13T20:19:09.407Z,20.40
2022-11-13T20:23:16.498Z,20.20
2022-11-13T20:27:32.466Z,19.20
2022-11-13T20:31:38.881Z,20.30
2022-11-13T20:35:47.328Z,20.20
2022-11-13T20:39:53.238Z,19.30
2022-11-13T20:44:03.722Z,18.53
2022-11-13T20:48:08.763Z,19.77
2022-11-13T20:52:16.100Z,24.50
2022-11-13T20:56:25.260Z,18.40
2022-11-13T21:00:30.148Z,18.80
2022-11-13T21:04:34.217Z,17.73
2022-11-13T21:08:39.412Z,18.20
2022-11-13T21:12:43.386Z,16.67
2022-11-13T21:16:50.040Z,16.60
2022-11-13T21:20:56.417Z,18.50
2022-11-13T21:25:15.241Z,16.27
2022-11-13T21:29:19.329Z,18.63
2022-11-13T21:33:22.698Z,17.63
2022-11-13T21:37:27.093Z,20.30
2022-11-13T21:41:32.045Z,18.30
2022-11-13T21:45:35.516Z,18.40
2022-11-13T21:49:38.837Z,20.37
2022-11-13T21:53:42.994Z,20.80
2022-11-13T21:57:47.691Z,21.00
2022-11-13T22:01:51.151Z,20.03
2022-11-13T22:06:19.392Z,20.23
2022-11-13T22:10:22.657Z,19.73
2022-11-13T22:14:27.377Z,18.00
2022-11-13T22:18:30.845Z,20.20
2022-11-13T22:22:34.480Z,19.00
2022-11-13T22:26:39.385Z,18.50
2022-11-13T22:30:47.352Z,18.37
2022-11-13T22:34:50.628Z,18.33
2022-11-13T22:38:54.490Z,18.30
2022-11-13T22:42:57.781Z,17.70
2022-11-13T22:47:02.500Z,17.50
2022-11-13T22:51:07.520Z,16.57
2022-11-13T22:55:11.089Z,16.83
2022-11-13T22:59:14.357Z,16.83
2022-11-13T23:03:19.146Z,14.97
2022-11-13T23:07:22.535Z,17.37
2022-11-13T23:11:29.731Z,14.53
2022-11-13T23:15:33.218Z,16.07
2022-11-13T23:19:37.918Z,17.50
2022-11-13T23:23:41.551Z,15.97
2022-11-13T23:27:45.357Z,15.80
2022-11-13T23:31:48.654Z,17.03
2022-11-13T23:35:53.814Z,16.00
2022-11-13T23:39:57.067Z,16.60
2022-11-13T23:44:09.465Z,14.57
2022-11-13T23:48:13.139Z,17.63
2022-11-13T23:52:17.867Z,15.60
2022-11-13T23:56:21.221Z,15.53
